createdAt,value
2022-08-17T00:00:43.158Z,20.24
2022-08-17T00:03:30.576Z,20.26
2022-08-17T00:06:15.998Z,20.26
2022-08-17T00:08:56.702Z,20.19
2022-08-17T00:11:32.316Z,20.16
2022-08-17T00:14:04.925Z,20.12
2022-08-17T00:16:56.657Z,20.08
2022-08-17T00:19:26.371Z,20.06
2022-08-17T00:22:31.479Z,20.03
2022-08-17T00:24:45.596Z,20.04
2022-08-17T00:27:13.567Z,20.05
2022-08-17T00:29:42.318Z,20.03
2022-08-17T00:33:14.072Z,20.09
2022-08-17T00:34:58.347Z,20.10
2022-08-17T00:37:26.339Z,20.06
2022-08-17T00:39:54.398Z,20.06
2022-08-17T00:42:22.353Z,20.02
2022-08-17T00:44:50.336Z,20.00
2022-08-17T00:47:18.329Z,19.96
2022-08-17T00:49:46.271Z,19.88
2022-08-17T00:52:20.649Z,19.86
2022-08-17T00:54:52.411Z,19.82
2022-08-17T00:57:26.575Z,19.79
2022-08-17T01:00:03.190Z,19.75
2022-08-17T01:02:42.347Z,19.72
2022-08-17T01:05:17.213Z,19.68
2022-08-17T01:07:50.255Z,19.65
2022-08-17T01:10:58.995Z,19.62
2022-08-17T01:13:12.369Z,19.59
2022-08-17T01:15:48.894Z,19.56
2022-08-17T01:18:16.990Z,19.54
2022-08-17T01:20:52.308Z,19.53
2022-08-17T01:23:23.618Z,19.53
2022-08-17T01:25:55.107Z,19.57
2022-08-17T01:28:36.476Z,19.64
2022-08-17T01:31:14.743Z,19.61
2022-08-17T01:33:43.082Z,19.58
2022-08-17T01:36:11.198Z,19.56
2022-08-17T01:38:40.566Z,19.57
2022-08-17T01:41:13.806Z,19.56
2022-08-17T01:43:55.388Z,19.55
2022-08-17T01:46:27.252Z,19.57
2022-08-17T01:48:57.715Z,19.52
2022-08-17T01:51:33.292Z,19.49
2022-08-17T01:54:06.971Z,19.49
2022-08-17T01:56:38.795Z,19.57
2022-08-17T01:59:06.780Z,19.57
2022-08-17T02:01:35.823Z,19.55
2022-08-17T02:04:06.745Z,19.54
2022-08-17T02:06:45.080Z,19.50
2022-08-17T02:09:26.343Z,19.48
2022-08-17T02:12:37.939Z,19.46
2022-08-17T02:14:48.677Z,19.42
2022-08-17T02:17:16.751Z,19.38
2022-08-17T02:19:44.560Z,19.37
2022-08-17T02:22:13.779Z,19.39
2022-08-17T02:25:00.929Z,19.37
2022-08-17T02:27:30.530Z,19.37
2022-08-17T02:29:58.484Z,19.40
2022-08-17T02:32:28.227Z,19.41
2022-08-17T02:35:01.019Z,19.39
2022-08-17T02:37:30.183Z,19.38
2022-08-17T02:39:59.636Z,19.37
2022-08-17T02:42:42.985Z,19.36
2022-08-17T02:45:17.667Z,19.31
2022-08-17T02:47:46.410Z,19.27
2022-08-17T02:50:17.856Z,19.24
2022-08-17T02:52:48.876Z,19.18
2022-08-17T02:55:33.456Z,19.09
2022-08-17T02:58:03.727Z,19.00
2022-08-17T03:00:36.770Z,18.97
2022-08-17T03:03:06.235Z,18.95
2022-08-17T03:05:36.487Z,18.93
2022-08-17T03:08:06.754Z,18.91
2022-08-17T03:10:39.770Z,18.90
2022-08-17T03:13:07.742Z,18.88
2022-08-17T03:15:35.737Z,18.87
2022-08-17T03:18:08.586Z,18.85
2022-08-17T03:20:47.102Z,18.85
2022-08-17T03:23:15.111Z,18.83
2022-08-17T03:25:46.729Z,18.81
2022-08-17T03:28:14.795Z,18.77
2022-08-17T03:30:42.795Z,18.77
2022-08-17T03:33:12.929Z,18.77
2022-08-17T03:35:41.326Z,18.82
2022-08-17T03:38:11.396Z,18.91
2022-08-17T03:40:56.792Z,19.00
2022-08-17T03:43:30.794Z,19.00
2022-08-17T03:46:34.372Z,19.01
2022-08-17T03:49:24.565Z,18.95
2022-08-17T03:52:12.907Z,18.88
2022-08-17T03:55:00.954Z,18.85
2022-08-17T03:57:30.436Z,18.83
2022-08-17T04:00:00.064Z,18.82
2022-08-17T04:02:31.603Z,18.83
2022-08-17T04:05:00.290Z,18.84
2022-08-17T04:07:31.269Z,18.80
2022-08-17T04:09:59.879Z,18.79
2022-08-17T04:12:42.148Z,18.79
2022-08-17T04:15:11.948Z,18.75
2022-08-17T04:17:40.649Z,18.76
2022-08-17T04:20:09.380Z,18.80
2022-08-17T04:22:37.262Z,18.82
2022-08-17T04:25:16.053Z,18.88
2022-08-17T04:27:44.074Z,18.94
2022-08-17T04:30:13.279Z,18.99
2022-08-17T04:33:09.726Z,19.04
2022-08-17T04:35:50.822Z,19.09
2022-08-17T04:38:21.639Z,19.14
2022-08-17T04:41:08.319Z,19.19
2022-08-17T04:43:38.854Z,19.26
2022-08-17T04:46:10.158Z,19.30
2022-08-17T04:48:42.764Z,19.32
2022-08-17T04:51:18.207Z,19.40
2022-08-17T04:53:54.057Z,19.48
2022-08-17T04:56:26.110Z,19.56
2022-08-17T04:58:58.795Z,19.58
2022-08-17T05:01:28.950Z,19.60
2022-08-17T05:04:18.378Z,19.65
2022-08-17T05:06:50.131Z,19.69
2022-08-17T05:09:18.548Z,19.73
2022-08-17T05:11:47.334Z,19.75
2022-08-17T05:14:15.354Z,19.77
2022-08-17T05:16:43.202Z,19.79
2022-08-17T05:19:10.992Z,19.80
2022-08-17T05:21:38.876Z,19.77
2022-08-17T05:24:16.718Z,19.80
2022-08-17T05:26:54.694Z,19.85
2022-08-17T05:29:23.278Z,19.89
2022-08-17T05:32:38.224Z,19.96
2022-08-17T05:35:00.707Z,20.00
2022-08-17T05:37:28.977Z,20.02
2022-08-17T05:39:56.931Z,20.09
2022-08-17T05:42:24.874Z,20.19
2022-08-17T05:44:52.886Z,20.26
2022-08-17T05:47:24.149Z,20.29
2022-08-17T05:49:53.901Z,20.35
2022-08-17T05:52:40.498Z,20.39
2022-08-17T05:55:18.212Z,20.42
2022-08-17T05:57:53.079Z,20.48
2022-08-17T06:00:30.575Z,20.55
2022-08-17T06:03:23.757Z,20.59
2022-08-17T06:06:16.075Z,20.69
2022-08-17T06:09:14.472Z,20.80
2022-08-17T06:11:42.247Z,20.91
2022-08-17T06:14:35.561Z,21.00
2022-08-17T06:17:08.825Z,21.07
2022-08-17T06:19:54.760Z,21.14
2022-08-17T06:22:28.254Z,21.22
2022-08-17T06:25:22.662Z,21.31
2022-08-17T06:27:56.791Z,21.42
2022-08-17T06:30:28.436Z,21.49
2022-08-17T06:33:07.945Z,21.54
2022-08-17T06:36:09.496Z,21.58
2022-08-17T06:39:22.863Z,21.63
2022-08-17T06:43:02.331Z,21.69
2022-08-17T06:45:09.893Z,21.76
2022-08-17T06:47:48.841Z,21.83
2022-08-17T06:50:44.342Z,21.92
2022-08-17T06:53:12.201Z,22.03
2022-08-17T06:56:00.004Z,22.11
2022-08-17T06:58:31.464Z,22.20
2022-08-17T07:01:16.317Z,22.29
2022-08-17T07:04:11.866Z,22.37
2022-08-17T07:06:44.718Z,22.46
2022-08-17T07:09:23.362Z,22.52
2022-08-17T07:11:57.246Z,22.57
2022-08-17T07:14:54.412Z,22.61
2022-08-17T07:17:46.955Z,22.66
2022-08-17T07:20:15.978Z,22.71
2022-08-17T07:22:59.815Z,22.77
2022-08-17T07:25:30.940Z,22.85
2022-08-17T07:28:06.030Z,22.91
2022-08-17T07:30:47.587Z,22.94
2022-08-17T07:33:23.696Z,22.98
2022-08-17T07:35:52.191Z,23.03
2022-08-17T07:38:29.712Z,23.07
2022-08-17T07:41:04.941Z,23.13
2022-08-17T07:43:42.094Z,23.20
2022-08-17T07:46:47.850Z,23.27
2022-08-17T07:49:16.987Z,23.39
2022-08-17T07:51:45.795Z,23.50
2022-08-17T07:54:18.544Z,23.60
2022-08-17T07:56:52.681Z,23.67
2022-08-17T07:59:28.619Z,23.74
2022-08-17T08:02:15.055Z,23.78
2022-08-17T08:05:01.339Z,23.81
2022-08-17T08:07:35.614Z,23.87
2022-08-17T08:10:25.580Z,23.93
2022-08-17T08:13:14.028Z,24.00
2022-08-17T08:15:53.593Z,24.04
2022-08-17T08:18:54.967Z,24.08
2022-08-17T08:21:29.181Z,24.13
2022-08-17T08:24:06.236Z,24.18
2022-08-17T08:26:46.489Z,24.22
2022-08-17T08:29:32.431Z,24.27
2022-08-17T08:32:21.866Z,24.32
2022-08-17T08:35:08.962Z,24.36
2022-08-17T08:38:02.111Z,24.39
2022-08-17T08:41:00.949Z,24.44
2022-08-17T08:43:38.290Z,24.52
2022-08-17T08:46:25.960Z,24.60
2022-08-17T08:49:10.161Z,24.67
2022-08-17T08:51:52.277Z,24.74
2022-08-17T08:54:42.781Z,24.80
2022-08-17T08:57:30.766Z,24.83
2022-08-17T09:00:10.145Z,24.87
2022-08-17T09:02:40.722Z,24.91
2022-08-17T09:05:16.274Z,24.97
2022-08-17T09:07:59.340Z,25.02
2022-08-17T09:10:34.990Z,25.09
2022-08-17T09:13:41.358Z,25.14
2022-08-17T09:16:15.386Z,25.21
2022-08-17T09:19:03.007Z,25.27
2022-08-17T09:21:38.252Z,25.35
2022-08-17T09:24:37.874Z,25.46
2022-08-17T09:27:09.406Z,25.58
2022-08-17T09:29:43.662Z,25.67
2022-08-17T09:32:25.012Z,25.72
2022-08-17T09:34:57.398Z,25.75
2022-08-17T09:37:37.644Z,25.80
2022-08-17T09:40:25.685Z,25.86
2022-08-17T09:43:00.932Z,25.95
2022-08-17T09:45:38.088Z,25.99
2022-08-17T09:48:20.852Z,26.01
2022-08-17T09:51:27.076Z,26.09
2022-08-17T09:54:09.502Z,26.19
2022-08-17T09:57:29.184Z,26.29
2022-08-17T10:00:16.965Z,26.43
2022-08-17T10:03:04.569Z,26.52
2022-08-17T10:05:48.048Z,26.56
2022-08-17T10:08:32.152Z,26.59
2022-08-17T10:11:11.682Z,26.63
2022-08-17T10:14:36.720Z,26.66
2022-08-17T10:17:25.259Z,26.71
2022-08-17T10:20:06.787Z,26.75
2022-08-17T10:23:07.831Z,26.82
2022-08-17T10:26:02.762Z,26.90
2022-08-17T10:28:39.912Z,26.96
2022-08-17T10:31:33.667Z,27.00
2022-08-17T10:34:40.961Z,27.05
2022-08-17T10:37:19.608Z,27.12
2022-08-17T10:40:07.188Z,27.19
2022-08-17T10:42:50.256Z,27.26
2022-08-17T10:45:45.557Z,27.35
2022-08-17T10:48:27.027Z,27.44
2022-08-17T10:51:08.783Z,27.53
2022-08-17T10:53:37.830Z,27.62
2022-08-17T10:56:14.318Z,27.68
2022-08-17T10:58:57.411Z,27.69
2022-08-17T11:01:34.997Z,27.73
2022-08-17T11:04:11.810Z,27.81
2022-08-17T11:06:42.115Z,27.88
2022-08-17T11:09:28.334Z,27.95
2022-08-17T11:12:25.645Z,28.04
2022-08-17T11:15:00.493Z,28.13
2022-08-17T11:17:43.246Z,28.21
2022-08-17T11:20:30.573Z,28.27
2022-08-17T11:22:59.141Z,28.32
2022-08-17T11:25:47.356Z,28.38
2022-08-17T11:28:48.891Z,28.48
2022-08-17T11:31:38.904Z,28.59
2022-08-17T11:34:19.780Z,28.68
2022-08-17T11:37:02.101Z,28.78
2022-08-17T11:39:51.393Z,28.84
2022-08-17T11:42:31.225Z,28.90
2022-08-17T11:45:32.383Z,28.96
2022-08-17T11:48:42.639Z,29.05
2022-08-17T11:51:36.040Z,29.15
2022-08-17T11:54:33.431Z,29.24
2022-08-17T11:57:27.573Z,29.31
2022-08-17T11:59:58.766Z,29.44
2022-08-17T12:02:34.467Z,29.52
2022-08-17T12:05:15.491Z,29.57
2022-08-17T12:07:59.428Z,29.65
2022-08-17T12:10:34.331Z,29.68
2022-08-17T12:13:15.853Z,29.78
2022-08-17T12:15:49.841Z,29.91
2022-08-17T12:18:25.136Z,30.03
2022-08-17T12:21:09.146Z,30.07
2022-08-17T12:23:59.356Z,30.08
2022-08-17T12:26:31.860Z,30.12
2022-08-17T12:29:06.447Z,30.13
2022-08-17T12:31:44.697Z,30.09
2022-08-17T12:34:19.103Z,30.06
2022-08-17T12:36:53.070Z,30.07
2022-08-17T12:39:24.981Z,30.11
2022-08-17T12:42:01.980Z,30.15
2022-08-17T12:44:34.118Z,30.20
2022-08-17T12:47:22.870Z,30.19
2022-08-17T12:49:53.731Z,30.22
2022-08-17T12:52:28.431Z,30.14
2022-08-17T12:55:02.112Z,30.09
2022-08-17T12:57:38.919Z,30.05
2022-08-17T13:00:17.795Z,30.04
2022-08-17T13:02:58.868Z,30.02
2022-08-17T13:05:34.114Z,30.00
2022-08-17T13:08:15.376Z,30.10
2022-08-17T13:10:53.392Z,30.18
2022-08-17T13:13:28.285Z,30.28
2022-08-17T13:16:27.627Z,30.37
2022-08-17T13:19:08.055Z,30.53
2022-08-17T13:21:38.127Z,30.60
2022-08-17T13:24:19.803Z,30.58
2022-08-17T13:26:54.261Z,30.49
2022-08-17T13:29:45.100Z,30.37
2022-08-17T13:32:39.857Z,30.30
2022-08-17T13:35:39.783Z,30.25
2022-08-17T13:38:10.280Z,30.27
2022-08-17T13:40:45.234Z,30.30
2022-08-17T13:43:48.500Z,30.34
2022-08-17T13:46:19.637Z,30.39
2022-08-17T13:49:04.756Z,30.48
2022-08-17T13:51:45.319Z,30.55
2022-08-17T13:54:26.651Z,30.59
2022-08-17T13:56:57.888Z,30.57
2022-08-17T13:59:53.326Z,30.51
2022-08-17T14:02:22.962Z,30.37
2022-08-17T14:04:56.855Z,30.25
2022-08-17T14:07:32.473Z,30.16
2022-08-17T14:10:02.599Z,30.06
2022-08-17T14:12:32.023Z,29.97
2022-08-17T14:15:01.103Z,29.91
2022-08-17T14:17:35.052Z,29.89
2022-08-17T14:20:12.470Z,29.87
2022-08-17T14:22:45.106Z,29.85
2022-08-17T14:25:16.886Z,29.85
2022-08-17T14:27:52.829Z,29.83
2022-08-17T14:30:29.117Z,29.85
2022-08-17T14:32:59.227Z,29.91
2022-08-17T14:35:28.307Z,29.97
2022-08-17T14:37:56.867Z,30.02
2022-08-17T14:40:25.718Z,30.06
2022-08-17T14:42:56.038Z,30.14
2022-08-17T14:45:27.391Z,30.25
2022-08-17T14:48:04.643Z,30.34
2022-08-17T14:50:35.341Z,30.37
2022-08-17T14:53:06.890Z,30.42
2022-08-17T14:55:37.015Z,30.54
2022-08-17T14:58:04.779Z,30.68
2022-08-17T15:00:33.601Z,30.76
2022-08-17T15:03:02.572Z,30.84
2022-08-17T15:05:36.671Z,30.88
2022-08-17T15:08:06.187Z,30.92
2022-08-17T15:10:34.642Z,30.92
2022-08-17T15:13:02.789Z,30.92
2022-08-17T15:15:31.194Z,30.94
2022-08-17T15:18:00.385Z,30.93
2022-08-17T15:20:29.814Z,30.92
2022-08-17T15:22:59.330Z,30.90
2022-08-17T15:25:29.975Z,30.88
2022-08-17T15:27:58.793Z,30.95
2022-08-17T15:30:27.796Z,30.92
2022-08-17T15:33:06.390Z,30.84
2022-08-17T15:35:39.294Z,30.78
2022-08-17T15:38:12.080Z,30.77
2022-08-17T15:40:44.415Z,30.79
2022-08-17T15:43:24.759Z,30.80
2022-08-17T15:46:01.783Z,30.82
2022-08-17T15:48:41.790Z,30.83
2022-08-17T15:51:24.151Z,30.82
2022-08-17T15:53:57.638Z,30.80
2022-08-17T15:56:27.004Z,30.80
2022-08-17T15:58:55.437Z,30.77
2022-08-17T16:01:40.512Z,30.74
2022-08-17T16:04:26.910Z,30.75
2022-08-17T16:07:07.040Z,30.75
2022-08-17T16:09:38.955Z,30.73
2022-08-17T16:12:16.833Z,30.63
2022-08-17T16:14:46.152Z,30.55
2022-08-17T16:17:38.502Z,30.51
2022-08-17T16:20:03.167Z,30.44
2022-08-17T16:22:40.124Z,30.41
2022-08-17T16:25:17.436Z,30.37
2022-08-17T16:27:48.210Z,30.32
2022-08-17T16:30:17.713Z,30.29
2022-08-17T16:32:50.694Z,30.28
2022-08-17T16:35:22.147Z,30.34
2022-08-17T16:37:54.360Z,30.35
2022-08-17T16:40:26.025Z,30.27
2022-08-17T16:42:55.471Z,30.18
2022-08-17T16:45:31.450Z,30.11
2022-08-17T16:48:01.742Z,30.04
2022-08-17T16:50:29.853Z,29.97
2022-08-17T16:53:17.465Z,29.94
2022-08-17T16:55:47.102Z,29.87
2022-08-17T16:58:15.935Z,29.81
2022-08-17T17:00:46.665Z,29.75
2022-08-17T17:03:19.615Z,29.67
2022-08-17T17:05:51.465Z,29.59
2022-08-17T17:08:40.719Z,29.50
2022-08-17T17:11:21.645Z,29.39
2022-08-17T17:14:05.240Z,29.28
2022-08-17T17:16:50.556Z,29.18
2022-08-17T17:19:35.140Z,29.09
2022-08-17T17:22:15.834Z,28.99
2022-08-17T17:25:02.687Z,28.91
2022-08-17T17:27:44.714Z,28.82
2022-08-17T17:30:48.665Z,28.72
2022-08-17T17:33:24.863Z,28.63
2022-08-17T17:35:59.357Z,28.55
2022-08-17T17:38:37.710Z,28.48
2022-08-17T17:41:26.318Z,28.41
2022-08-17T17:44:03.037Z,28.33
2022-08-17T17:46:37.995Z,28.27
2022-08-17T17:49:06.724Z,28.21
2022-08-17T17:52:06.607Z,28.14
2022-08-17T17:54:39.500Z,28.05
2022-08-17T17:57:21.406Z,27.98
2022-08-17T17:59:52.053Z,27.92
2022-08-17T18:02:52.193Z,27.84
2022-08-17T18:05:48.785Z,27.77
2022-08-17T18:08:33.901Z,27.70
2022-08-17T18:11:08.531Z,27.64
2022-08-17T18:13:53.566Z,27.59
2022-08-17T18:16:22.653Z,27.53
2022-08-17T18:18:52.749Z,27.49
2022-08-17T18:21:24.286Z,27.43
2022-08-17T18:24:01.379Z,27.37
2022-08-17T18:26:57.677Z,27.33
2022-08-17T18:29:31.644Z,27.28
2022-08-17T18:32:18.239Z,27.22
2022-08-17T18:34:49.491Z,27.17
2022-08-17T18:37:55.488Z,27.11
2022-08-17T18:40:27.517Z,27.03
2022-08-17T18:43:02.888Z,26.98
2022-08-17T18:45:38.535Z,26.91
2022-08-17T18:48:22.767Z,26.86
2022-08-17T18:50:53.467Z,26.81
2022-08-17T18:53:34.861Z,26.77
2022-08-17T18:56:35.051Z,26.73
2022-08-17T18:59:27.116Z,26.71
2022-08-17T19:02:15.299Z,26.68
2022-08-17T19:05:08.171Z,26.65
2022-08-17T19:07:40.902Z,26.61
2022-08-17T19:10:23.974Z,26.54
2022-08-17T19:13:14.089Z,26.47
2022-08-17T19:16:15.970Z,26.42
2022-08-17T19:18:50.932Z,26.35
2022-08-17T19:21:27.226Z,26.32
2022-08-17T19:24:19.678Z,26.28
2022-08-17T19:26:56.851Z,26.23
2022-08-17T19:30:07.819Z,26.21
2022-08-17T19:32:36.656Z,26.18
2022-08-17T19:35:08.297Z,26.15
2022-08-17T19:37:47.516Z,26.12
2022-08-17T19:40:53.700Z,26.07
2022-08-17T19:43:47.303Z,26.02
2022-08-17T19:46:48.641Z,25.95
2022-08-17T19:49:50.485Z,25.92
2022-08-17T19:52:27.203Z,25.83
2022-08-17T19:55:09.017Z,25.76
2022-08-17T19:58:07.868Z,25.73
2022-08-17T20:00:42.975Z,25.71
2022-08-17T20:03:34.239Z,25.68
2022-08-17T20:06:12.928Z,25.62
2022-08-17T20:08:54.040Z,25.59
2022-08-17T20:11:31.484Z,25.55
2022-08-17T20:14:28.712Z,25.50
2022-08-17T20:17:01.920Z,25.45
2022-08-17T20:20:01.566Z,25.43
2022-08-17T20:22:50.421Z,25.42
2022-08-17T20:25:31.604Z,25.39
2022-08-17T20:28:24.170Z,25.38
2022-08-17T20:30:52.581Z,25.36
2022-08-17T20:33:36.764Z,25.35
2022-08-17T20:36:22.741Z,25.31
2022-08-17T20:38:56.683Z,25.23
2022-08-17T20:41:29.905Z,25.17
2022-08-17T20:43:58.441Z,25.11
2022-08-17T20:46:41.942Z,25.08
2022-08-17T20:49:22.767Z,25.04
2022-08-17T20:52:02.930Z,25.01
2022-08-17T20:54:57.829Z,24.97
2022-08-17T20:57:34.408Z,24.97
2022-08-17T21:00:19.071Z,24.96
2022-08-17T21:02:50.093Z,24.97
2022-08-17T21:05:38.616Z,24.98
2022-08-17T21:08:16.711Z,24.96
2022-08-17T21:10:47.094Z,24.96
2022-08-17T21:13:15.703Z,24.96
2022-08-17T21:16:22.408Z,24.95
2022-08-17T21:19:03.176Z,24.93
2022-08-17T21:21:58.200Z,24.89
2022-08-17T21:24:55.418Z,24.86
2022-08-17T21:27:37.503Z,24.84
2022-08-17T21:30:06.628Z,24.84
2022-08-17T21:32:42.176Z,24.85
2022-08-17T21:35:19.428Z,24.85
2022-08-17T21:37:50.576Z,24.84
2022-08-17T21:40:25.402Z,24.83
2022-08-17T21:42:58.196Z,24.82
2022-08-17T21:45:36.112Z,24.79
2022-08-17T21:48:19.777Z,24.74
2022-08-17T21:51:18.113Z,24.73
2022-08-17T21:53:56.189Z,24.71
2022-08-17T21:56:33.044Z,24.69
2022-08-17T21:59:04.774Z,24.65
2022-08-17T22:01:37.464Z,24.63
2022-08-17T22:04:17.625Z,24.58
2022-08-17T22:06:52.349Z,24.54
2022-08-17T22:09:32.326Z,24.49
2022-08-17T22:12:07.215Z,24.43
2022-08-17T22:14:52.960Z,24.40
2022-08-17T22:17:29.812Z,24.32
2022-08-17T22:20:09.440Z,24.30
2022-08-17T22:23:03.974Z,24.27
2022-08-17T22:25:36.210Z,24.22
2022-08-17T22:28:09.593Z,24.20
2022-08-17T22:31:01.299Z,24.17
2022-08-17T22:33:43.923Z,24.16
2022-08-17T22:36:30.239Z,24.10
2022-08-17T22:39:22.405Z,24.05
2022-08-17T22:41:54.868Z,24.01
2022-08-17T22:44:23.374Z,23.95
2022-08-17T22:46:55.586Z,23.91
2022-08-17T22:49:38.781Z,23.88
2022-08-17T22:52:32.040Z,23.84
2022-08-17T22:55:35.035Z,23.81
2022-08-17T22:58:29.611Z,23.77
2022-08-17T23:01:31.621Z,23.74
2022-08-17T23:04:06.812Z,23.73
2022-08-17T23:06:37.723Z,23.73
2022-08-17T23:09:07.580Z,23.73
2022-08-17T23:11:49.889Z,23.72
2022-08-17T23:14:22.612Z,23.72
2022-08-17T23:16:51.092Z,23.71
2022-08-17T23:19:21.319Z,23.70
2022-08-17T23:21:52.641Z,23.69
2022-08-17T23:24:24.744Z,23.70
2022-08-17T23:26:54.346Z,23.65
2022-08-17T23:29:22.580Z,23.64
2022-08-17T23:31:51.899Z,23.62
2022-08-17T23:34:19.894Z,23.59
2022-08-17T23:36:52.358Z,23.56
2022-08-17T23:39:24.631Z,23.54
2022-08-17T23:42:00.973Z,23.49
2022-08-17T23:44:28.927Z,23.45
2022-08-17T23:46:57.525Z,23.39
2022-08-17T23:49:25.695Z,23.36
2022-08-17T23:51:55.306Z,23.34
2022-08-17T23:54:26.973Z,23.35
2022-08-17T23:56:54.909Z,23.34
2022-08-17T23:59:23.730Z,23.33
